Blauvelt, New York
Current Conditions -  °F | °C
As of 9:56 PM on Monday 26 Jan 2015 (Local Time) from KHPN Reporting Station
Light Snow Light Snow  
Wind Chill: 12°   Ceiling: 500
Heat Index: 24°   Visibility: 1mi
Dew Point: 19°   Wind: 13mph
Humidity: 81%   Direction: 20°NNE
Pressure: 29.74"   Gusts: 23mph
Location:  41.06°N, 73.96°W
Report Text: KHPN 270256Z 02011G20KT 1SM R16/P6000FT -SN BR VV005 M04/M07 A2974 RMK AO2 SLP083 P0000 60000 T10441072 58027
Loading
Personal Weather Stations






























Interactive Weather Map New forecast layout! Learn more

10-Day Weather Forecast

Advertisements
Track Severe Weather on mobile